createdAt,value
2022-08-17T00:02:25.527Z,1338.13
2022-08-17T00:04:55.074Z,1337.38
2022-08-17T00:07:22.792Z,1339.65
2022-08-17T00:09:49.563Z,1335.32
2022-08-17T00:12:51.508Z,1336.13
2022-08-17T00:15:05.265Z,1345.55
2022-08-17T00:17:32.061Z,1334.53
2022-08-17T00:20:00.266Z,1357.68
2022-08-17T00:22:30.907Z,1357.13
2022-08-17T00:25:03.268Z,1338.47
2022-08-17T00:27:30.026Z,1333.40
2022-08-17T00:29:56.796Z,1335.53
2022-08-17T00:33:13.921Z,1328.85
2022-08-17T00:35:12.909Z,1350.90
2022-08-17T00:37:40.066Z,1334.72
2022-08-17T00:40:10.099Z,1341.73
2022-08-17T00:42:37.570Z,1351.75
2022-08-17T00:45:06.650Z,1363.35
2022-08-17T00:47:33.585Z,1347.85
2022-08-17T00:50:00.318Z,1344.07
2022-08-17T00:52:35.630Z,1360.38
2022-08-17T00:55:04.768Z,1340.78
2022-08-17T00:57:36.361Z,1318.57
2022-08-17T01:00:12.004Z,1346.63
2022-08-17T01:02:43.255Z,1335.63
2022-08-17T01:05:18.665Z,1343.78
2022-08-17T01:07:47.891Z,1330.22
2022-08-17T01:10:59.040Z,1345.32
2022-08-17T01:13:04.025Z,1331.90
2022-08-17T01:15:34.822Z,1342.63
2022-08-17T01:18:01.991Z,1324.82
2022-08-17T01:20:29.566Z,1344.20
2022-08-17T01:22:56.349Z,1334.25
2022-08-17T01:25:23.312Z,1355.38
2022-08-17T01:27:50.230Z,1356.40
2022-08-17T01:30:57.398Z,1355.95
2022-08-17T01:33:05.719Z,1352.40
2022-08-17T01:35:32.483Z,1358.13
2022-08-17T01:37:59.300Z,1352.60
2022-08-17T01:40:37.754Z,1345.95
2022-08-17T01:43:12.097Z,1355.13
2022-08-17T01:45:45.926Z,1346.70
2022-08-17T01:48:13.379Z,1333.30
2022-08-17T01:50:42.728Z,1335.25
2022-08-17T01:53:14.231Z,1347.30
2022-08-17T01:55:49.381Z,1342.50
2022-08-17T01:58:16.427Z,1341.63
2022-08-17T02:01:00.196Z,1345.40
2022-08-17T02:03:29.818Z,1340.75
2022-08-17T02:05:56.992Z,1323.30
2022-08-17T02:11:14.647Z,1353.60
2022-08-17T02:18:35.313Z,1298.63
2022-08-17T02:21:02.455Z,1323.80
2022-08-17T02:23:31.946Z,1319.43
2022-08-17T02:26:00.582Z,1349.00
2022-08-17T02:33:42.286Z,1324.70
2022-08-17T02:38:39.896Z,1315.68
2022-08-17T02:41:07.351Z,1348.20
2022-08-17T02:43:34.878Z,1332.13
2022-08-17T02:46:01.945Z,1341.95
2022-08-17T02:48:31.304Z,1340.33
2022-08-17T02:50:59.339Z,1330.68
2022-08-17T02:53:26.144Z,1354.15
2022-08-17T02:55:53.106Z,1328.38
2022-08-17T02:58:32.080Z,1310.25
2022-08-17T03:01:06.919Z,1326.07
2022-08-17T03:06:01.530Z,1339.55
2022-08-17T03:08:28.913Z,1227.90
2022-08-17T03:10:55.874Z,1227.10
2022-08-17T03:15:50.526Z,1343.68
2022-08-17T03:18:25.661Z,1359.78
2022-08-17T03:20:58.312Z,1188.05
2022-08-17T03:23:26.080Z,1349.38
2022-08-17T03:25:55.096Z,1375.95
2022-08-17T03:28:22.900Z,1331.90
2022-08-17T03:30:51.294Z,1359.88
2022-08-17T03:33:19.149Z,1335.95
2022-08-17T03:35:46.345Z,1319.90
2022-08-17T03:38:15.234Z,1339.72
2022-08-17T03:40:58.109Z,1296.10
2022-08-17T03:43:29.271Z,1353.07
2022-08-17T03:46:28.725Z,1343.25
2022-08-17T03:49:23.933Z,1295.23
2022-08-17T03:52:10.828Z,1320.30
2022-08-17T03:54:56.222Z,1311.20
2022-08-17T03:57:23.262Z,1322.67
2022-08-17T03:59:50.419Z,1315.30
2022-08-17T04:02:30.530Z,1329.72
2022-08-17T04:04:58.060Z,1334.90
2022-08-17T04:07:27.538Z,1338.05
2022-08-17T04:09:54.497Z,1326.00
2022-08-17T04:12:23.143Z,1302.28
2022-08-17T04:14:51.785Z,1339.55
2022-08-17T04:17:22.299Z,1341.60
2022-08-17T04:19:49.085Z,1319.18
2022-08-17T04:22:31.045Z,784.03
2022-08-17T04:25:19.743Z,778.75
2022-08-17T04:27:46.455Z,1269.00
2022-08-17T04:30:13.378Z,1361.50
2022-08-17T04:33:05.901Z,27.13
2022-08-17T04:35:58.378Z,12.32
2022-08-17T04:38:31.741Z,241.37
2022-08-17T04:41:18.372Z,12.10
2022-08-17T04:43:47.216Z,13.37
2022-08-17T04:46:19.347Z,79.60
2022-08-17T04:48:52.531Z,1235.87
2022-08-17T04:51:45.525Z,264.52
2022-08-17T04:54:22.604Z,1239.22
2022-08-17T04:56:49.359Z,992.70
2022-08-17T04:59:19.900Z,467.67
2022-08-17T05:01:48.580Z,16.70
2022-08-17T05:04:33.120Z,14.52
2022-08-17T05:07:01.577Z,12.85
2022-08-17T05:09:29.003Z,12.70
2022-08-17T05:11:56.329Z,12.82
2022-08-17T05:14:33.392Z,11.93
2022-08-17T05:17:01.282Z,12.75
2022-08-17T05:19:28.970Z,12.45
2022-08-17T05:21:55.679Z,12.80
2022-08-17T05:24:43.334Z,13.18
2022-08-17T05:27:09.231Z,12.90
2022-08-17T05:29:36.802Z,13.68
2022-08-17T05:32:38.419Z,12.88
2022-08-17T05:35:00.197Z,12.10
2022-08-17T05:37:27.174Z,473.33
2022-08-17T05:39:54.188Z,14.50
2022-08-17T05:42:21.024Z,190.03
2022-08-17T05:44:47.946Z,27.33
2022-08-17T05:47:14.725Z,13.50
2022-08-17T05:49:41.490Z,13.68
2022-08-17T05:52:19.750Z,13.65
2022-08-17T05:55:10.835Z,12.85
2022-08-17T05:57:53.717Z,19.88
2022-08-17T06:00:30.368Z,13.85
2022-08-17T06:03:26.656Z,14.20
2022-08-17T06:06:14.742Z,17.17
2022-08-17T06:08:53.144Z,25.65
2022-08-17T06:11:31.188Z,1195.60
2022-08-17T06:14:10.584Z,1284.43
2022-08-17T06:16:41.127Z,1057.35
2022-08-17T06:19:16.182Z,701.50
2022-08-17T06:21:52.743Z,469.77
2022-08-17T06:24:25.355Z,1166.10
2022-08-17T06:26:53.841Z,1368.32
2022-08-17T06:29:44.092Z,1338.90
2022-08-17T06:32:13.476Z,1343.63
2022-08-17T06:34:41.941Z,1344.77
2022-08-17T06:37:25.612Z,1353.40
2022-08-17T06:40:16.069Z,1371.43
2022-08-17T06:43:16.939Z,1357.63
2022-08-17T06:46:16.781Z,1358.97
2022-08-17T06:49:07.873Z,1362.50
2022-08-17T06:51:46.547Z,1355.40
2022-08-17T06:54:57.680Z,1335.55
2022-08-17T06:57:28.908Z,1354.05
2022-08-17T07:00:13.544Z,981.38
2022-08-17T07:02:53.568Z,1362.85
2022-08-17T07:05:24.851Z,1167.88
2022-08-17T07:08:09.308Z,1130.17
2022-08-17T07:10:52.532Z,193.77
2022-08-17T07:14:07.023Z,304.30
2022-08-17T07:16:38.391Z,394.37
2022-08-17T07:19:07.598Z,478.38
2022-08-17T07:21:40.820Z,424.13
2022-08-17T07:24:47.481Z,15.88
2022-08-17T07:27:25.227Z,140.05
2022-08-17T07:30:00.741Z,887.03
2022-08-17T07:32:35.952Z,1361.35
2022-08-17T07:35:15.453Z,1365.07
2022-08-17T07:37:55.670Z,1056.18
2022-08-17T07:40:29.715Z,1245.93
2022-08-17T07:43:07.721Z,1323.32
2022-08-17T07:46:08.959Z,1282.30
2022-08-17T07:48:38.762Z,1404.80
2022-08-17T07:51:28.913Z,1392.10
2022-08-17T07:54:13.927Z,1389.20
2022-08-17T07:56:43.775Z,1049.43
2022-08-17T07:59:24.181Z,1388.90
2022-08-17T08:01:58.089Z,1294.65
2022-08-17T08:04:59.668Z,1374.10
2022-08-17T08:07:34.628Z,1356.50
2022-08-17T08:10:07.428Z,1354.32
2022-08-17T08:12:39.396Z,1355.25
2022-08-17T08:15:22.673Z,1365.78
2022-08-17T08:17:53.343Z,1278.03
2022-08-17T08:20:51.698Z,1348.00
2022-08-17T08:23:54.050Z,1362.13
2022-08-17T08:26:26.329Z,1342.07
2022-08-17T08:29:22.693Z,1378.37
2022-08-17T08:32:08.461Z,1355.35
2022-08-17T08:34:58.959Z,1347.32
2022-08-17T08:37:42.971Z,1368.65
2022-08-17T08:40:36.512Z,1369.07
2022-08-17T08:43:09.425Z,1374.53
2022-08-17T08:46:14.701Z,1375.50
2022-08-17T08:48:58.467Z,1378.63
2022-08-17T08:51:32.584Z,1343.70
2022-08-17T08:54:05.514Z,1362.40
2022-08-17T08:56:38.759Z,1368.35
2022-08-17T08:59:16.906Z,1371.90
2022-08-17T09:02:08.348Z,1375.00
2022-08-17T09:05:02.789Z,1361.13
2022-08-17T09:07:37.546Z,1385.20
2022-08-17T09:10:24.549Z,1354.53
2022-08-17T09:13:09.521Z,1357.03
2022-08-17T09:15:47.296Z,1365.40
2022-08-17T09:19:00.614Z,1363.75
2022-08-17T09:21:48.618Z,1385.65
2022-08-17T09:24:57.341Z,1356.82
2022-08-17T09:27:30.567Z,1352.85
2022-08-17T09:30:08.476Z,1363.73
2022-08-17T09:32:43.957Z,1370.63
2022-08-17T09:35:25.079Z,1371.45
2022-08-17T09:38:09.148Z,1359.25
2022-08-17T09:40:50.541Z,1373.00
2022-08-17T09:43:51.188Z,1385.50
2022-08-17T09:46:20.262Z,1367.60
2022-08-17T09:49:11.199Z,1360.70
2022-08-17T09:52:00.878Z,1379.53
2022-08-17T09:54:40.187Z,1352.97
2022-08-17T09:57:44.050Z,1360.00
2022-08-17T10:00:21.330Z,1366.35
2022-08-17T10:03:19.834Z,1372.65
2022-08-17T10:05:56.289Z,1258.17
2022-08-17T10:08:42.086Z,1366.43
2022-08-17T10:11:14.831Z,1225.00
2022-08-17T10:13:59.542Z,1370.33
2022-08-17T10:16:45.368Z,1352.33
2022-08-17T10:19:27.039Z,1352.35
2022-08-17T10:22:34.664Z,1385.65
2022-08-17T10:25:24.844Z,1373.80
2022-08-17T10:28:01.736Z,1359.75
2022-08-17T10:30:33.170Z,1357.20
2022-08-17T10:33:04.713Z,1350.70
2022-08-17T10:35:45.265Z,1366.90
2022-08-17T10:38:36.492Z,1353.53
2022-08-17T10:41:06.396Z,1356.43
2022-08-17T10:44:36.575Z,1355.60
2022-08-17T10:47:06.349Z,1367.22
2022-08-17T10:49:34.734Z,1366.97
2022-08-17T10:52:24.083Z,1357.93
2022-08-17T10:54:51.854Z,1349.07
2022-08-17T10:57:33.940Z,1358.05
2022-08-17T11:00:01.679Z,1356.32
2022-08-17T11:02:50.280Z,1359.25
2022-08-17T11:05:28.687Z,1365.28
2022-08-17T11:08:17.443Z,1358.32
2022-08-17T11:11:03.107Z,1355.55
2022-08-17T11:13:56.750Z,1363.88
2022-08-17T11:16:26.653Z,1351.30
2022-08-17T11:19:11.995Z,1358.70
2022-08-17T11:21:52.011Z,1362.10
2022-08-17T11:24:28.369Z,1359.20
2022-08-17T11:27:01.320Z,1363.70
2022-08-17T11:29:50.594Z,1352.63
2022-08-17T11:32:34.380Z,1357.93
2022-08-17T11:35:22.433Z,1369.20
2022-08-17T11:38:27.830Z,1371.43
2022-08-17T11:41:13.846Z,1367.20
2022-08-17T11:43:46.661Z,1361.90
2022-08-17T11:47:02.819Z,1365.90
2022-08-17T11:50:20.897Z,1360.82
2022-08-17T11:52:51.040Z,1359.38
2022-08-17T11:55:37.443Z,1366.10
2022-08-17T11:58:37.247Z,1372.30
2022-08-17T12:01:08.165Z,1379.40
2022-08-17T12:03:34.940Z,1372.28
2022-08-17T12:06:24.943Z,1370.95
2022-08-17T12:09:13.076Z,1367.15
2022-08-17T12:12:11.175Z,1363.47
2022-08-17T12:15:08.177Z,1291.95
2022-08-17T12:17:40.555Z,1197.55
2022-08-17T12:20:19.668Z,1370.40
2022-08-17T12:23:03.645Z,1374.82
2022-08-17T12:25:49.677Z,1347.57
2022-08-17T12:28:31.668Z,1045.15
2022-08-17T12:31:13.507Z,1322.68
2022-08-17T12:33:44.759Z,1368.55
2022-08-17T12:36:15.889Z,1089.78
2022-08-17T12:39:14.113Z,1237.78
2022-08-17T12:41:47.885Z,1379.68
2022-08-17T12:44:23.223Z,1372.68
2022-08-17T12:46:55.458Z,1345.68
2022-08-17T12:49:37.709Z,1342.00
2022-08-17T12:52:25.044Z,1350.63
2022-08-17T12:55:22.717Z,1356.88
2022-08-17T12:57:54.690Z,1370.40
2022-08-17T13:00:25.399Z,1265.35
2022-08-17T13:02:52.116Z,1364.03
2022-08-17T13:05:31.822Z,1365.97
2022-08-17T13:08:00.123Z,1364.78
2022-08-17T13:10:33.132Z,1379.47
2022-08-17T13:13:05.883Z,1377.43
2022-08-17T13:15:44.554Z,1370.05
2022-08-17T13:18:43.519Z,1380.07
2022-08-17T13:21:28.093Z,1380.28
2022-08-17T13:24:04.279Z,1366.80
2022-08-17T13:26:48.204Z,1373.82
2022-08-17T13:29:23.915Z,1374.35
2022-08-17T13:32:13.481Z,1370.68
2022-08-17T13:35:12.198Z,1375.15
2022-08-17T13:38:06.525Z,1385.20
2022-08-17T13:40:37.947Z,1378.35
2022-08-17T13:43:05.344Z,1386.50
2022-08-17T13:45:39.722Z,1389.57
2022-08-17T13:48:12.356Z,1386.78
2022-08-17T13:50:49.352Z,1394.13
2022-08-17T13:53:50.578Z,1388.70
2022-08-17T13:56:39.596Z,1396.63
2022-08-17T13:59:11.340Z,1402.68
2022-08-17T14:01:47.500Z,1404.65
2022-08-17T14:04:21.051Z,1403.77
2022-08-17T14:07:11.586Z,1405.27
2022-08-17T14:09:54.361Z,1411.80
2022-08-17T14:12:24.994Z,1411.25
2022-08-17T14:14:53.375Z,1369.73
2022-08-17T14:17:20.919Z,1369.80
2022-08-17T14:19:48.128Z,1377.47
2022-08-17T14:22:30.522Z,1404.18
2022-08-17T14:24:58.605Z,1410.57
2022-08-17T14:27:28.145Z,1411.27
2022-08-17T14:29:56.415Z,1426.78
2022-08-17T14:32:26.805Z,1418.30
2022-08-17T14:34:56.625Z,1408.72
2022-08-17T14:37:26.348Z,1416.68
2022-08-17T14:39:58.043Z,1413.72
2022-08-17T14:42:26.785Z,1425.50
2022-08-17T14:44:54.831Z,1430.00
2022-08-17T14:47:22.095Z,1422.13
2022-08-17T14:49:49.207Z,1414.85
2022-08-17T14:52:20.816Z,1416.82
2022-08-17T14:54:51.855Z,1405.30
2022-08-17T14:57:33.179Z,1418.60
2022-08-17T15:00:02.132Z,1397.55
2022-08-17T15:02:30.919Z,1397.87
2022-08-17T15:05:03.981Z,1392.53
2022-08-17T15:07:31.601Z,1407.33
2022-08-17T15:10:01.588Z,1419.72
2022-08-17T15:12:33.225Z,1403.40
2022-08-17T15:15:05.446Z,1415.47
2022-08-17T15:17:44.282Z,1417.78
2022-08-17T15:20:23.848Z,1413.30
2022-08-17T15:22:55.655Z,1410.45
2022-08-17T15:25:23.814Z,1412.10
2022-08-17T15:27:50.877Z,1407.10
2022-08-17T15:30:18.629Z,1398.20
2022-08-17T15:32:50.889Z,1420.57
2022-08-17T15:35:28.250Z,1423.60
2022-08-17T15:38:08.094Z,1426.13
2022-08-17T15:40:41.171Z,1411.65
2022-08-17T15:43:11.360Z,1411.10
2022-08-17T15:45:38.950Z,1420.55
2022-08-17T15:48:06.078Z,1411.00
2022-08-17T15:50:32.924Z,1412.53
2022-08-17T15:53:01.789Z,1418.00
2022-08-17T15:55:30.305Z,1418.47
2022-08-17T15:57:57.260Z,1406.33
2022-08-17T16:00:24.195Z,1411.70
2022-08-17T16:03:45.811Z,1415.00
2022-08-17T16:05:38.345Z,1396.40
2022-08-17T16:08:07.912Z,1413.10
2022-08-17T16:10:36.078Z,1401.78
2022-08-17T16:13:04.244Z,1402.32
2022-08-17T16:15:31.816Z,1392.70
2022-08-17T16:17:59.092Z,1397.80
2022-08-17T16:20:26.061Z,1383.85
2022-08-17T16:22:53.139Z,1400.40
2022-08-17T16:25:38.343Z,1392.63
2022-08-17T16:28:12.200Z,1392.18
2022-08-17T16:30:39.095Z,1395.13
2022-08-17T16:33:05.937Z,1373.20
2022-08-17T16:35:33.483Z,1378.07
2022-08-17T16:38:00.304Z,1401.50
2022-08-17T16:40:29.517Z,1389.80
2022-08-17T16:42:58.178Z,1384.63
2022-08-17T16:45:39.821Z,1381.97
2022-08-17T16:48:08.270Z,1372.68
2022-08-17T16:50:36.058Z,1368.47
2022-08-17T16:53:10.376Z,1374.53
2022-08-17T16:55:39.328Z,1362.60
2022-08-17T16:58:08.705Z,1353.30
2022-08-17T17:00:36.701Z,1366.68
2022-08-17T17:03:19.754Z,1366.20
2022-08-17T17:06:13.464Z,1367.38
2022-08-17T17:08:48.320Z,1362.03
2022-08-17T17:11:38.684Z,1363.53
2022-08-17T17:14:10.469Z,1370.05
2022-08-17T17:17:09.058Z,1377.20
2022-08-17T17:19:51.313Z,1348.07
2022-08-17T17:22:27.972Z,1383.65
2022-08-17T17:25:20.406Z,1407.70
2022-08-17T17:27:50.072Z,1390.68
2022-08-17T17:30:29.479Z,1338.18
2022-08-17T17:33:01.843Z,1362.78
2022-08-17T17:35:33.679Z,1360.47
2022-08-17T17:38:10.998Z,1357.93
2022-08-17T17:40:44.803Z,1363.93
2022-08-17T17:43:37.781Z,1353.75
2022-08-17T17:46:27.767Z,1359.50
2022-08-17T17:48:59.394Z,1357.65
2022-08-17T17:52:06.928Z,1357.18
2022-08-17T17:54:56.103Z,1359.07
2022-08-17T17:57:24.720Z,1347.10
2022-08-17T18:00:08.247Z,1352.32
2022-08-17T18:02:52.024Z,1351.65
2022-08-17T18:05:38.637Z,1350.00
2022-08-17T18:08:33.926Z,1359.50
2022-08-17T18:11:11.893Z,1352.38
2022-08-17T18:14:18.405Z,1330.60
2022-08-17T18:16:46.605Z,1355.22
2022-08-17T18:19:16.035Z,1352.28
2022-08-17T18:21:48.828Z,1343.00
2022-08-17T18:24:27.937Z,1341.97
2022-08-17T18:26:57.382Z,1348.18
2022-08-17T18:29:40.562Z,1363.17
2022-08-17T18:32:48.199Z,1339.22
2022-08-17T18:35:14.918Z,1353.95
2022-08-17T18:37:43.688Z,1358.88
2022-08-17T18:40:19.722Z,1370.45
2022-08-17T18:43:03.083Z,1372.15
2022-08-17T18:45:42.147Z,1334.93
2022-08-17T18:48:30.178Z,1337.18
2022-08-17T18:51:26.355Z,1354.85
2022-08-17T18:54:15.831Z,1377.18
2022-08-17T18:57:04.230Z,1338.47
2022-08-17T18:59:48.526Z,1320.85
2022-08-17T19:02:23.238Z,1337.00
2022-08-17T19:05:00.755Z,1373.53
2022-08-17T19:07:38.805Z,1363.05
2022-08-17T19:10:18.956Z,1350.72
2022-08-17T19:13:14.737Z,1341.13
2022-08-17T19:16:14.010Z,1348.93
2022-08-17T19:18:47.523Z,1378.38
2022-08-17T19:21:25.810Z,1352.32
2022-08-17T19:24:20.172Z,1346.55
2022-08-17T19:27:10.829Z,1377.47
2022-08-17T19:29:51.630Z,1340.57
2022-08-17T19:32:25.464Z,1342.03
2022-08-17T19:34:52.807Z,1343.45
2022-08-17T19:37:42.254Z,1351.72
2022-08-17T19:40:51.813Z,1352.25
2022-08-17T19:43:41.705Z,1354.55
2022-08-17T19:46:26.086Z,1392.40
2022-08-17T19:49:15.337Z,1373.90
2022-08-17T19:52:10.702Z,1372.35
2022-08-17T19:54:47.340Z,1359.40
2022-08-17T19:57:43.678Z,1357.15
2022-08-17T20:00:15.135Z,1361.20
2022-08-17T20:02:47.305Z,1367.22
2022-08-17T20:05:19.724Z,1348.33
2022-08-17T20:07:55.592Z,1362.07
2022-08-17T20:10:55.392Z,1347.60
2022-08-17T20:13:40.163Z,1357.70
2022-08-17T20:16:09.932Z,1355.25
2022-08-17T20:18:58.110Z,1347.22
2022-08-17T20:21:49.891Z,1355.90
2022-08-17T20:24:28.585Z,1345.53
2022-08-17T20:27:17.762Z,1344.13
2022-08-17T20:30:37.402Z,1348.63
2022-08-17T20:33:07.065Z,1359.55
2022-08-17T20:35:37.453Z,1326.45
2022-08-17T20:38:33.236Z,1355.18
2022-08-17T20:41:03.893Z,1352.38
2022-08-17T20:43:33.560Z,1347.93
2022-08-17T20:46:12.529Z,1336.63
2022-08-17T20:48:44.394Z,1356.63
2022-08-17T20:51:26.013Z,1351.65
2022-08-17T20:53:55.507Z,1366.75
2022-08-17T20:56:41.202Z,1333.32
2022-08-17T20:59:07.952Z,1334.30
2022-08-17T21:01:39.954Z,1351.33
2022-08-17T21:04:08.395Z,1358.68
2022-08-17T21:07:15.290Z,1338.90
2022-08-17T21:09:42.087Z,1352.25
2022-08-17T21:12:09.433Z,1344.53
2022-08-17T21:14:59.941Z,1349.18
2022-08-17T21:17:31.167Z,1330.75
2022-08-17T21:20:45.528Z,1363.20
2022-08-17T21:23:21.214Z,1367.68
2022-08-17T21:26:11.929Z,1340.63
2022-08-17T21:29:00.762Z,1336.63
2022-08-17T21:31:43.144Z,1349.65
2022-08-17T21:34:15.809Z,1335.70
2022-08-17T21:36:48.181Z,1342.18
2022-08-17T21:39:18.816Z,1351.95
2022-08-17T21:41:55.886Z,1354.27
2022-08-17T21:44:33.706Z,1363.90
2022-08-17T21:47:19.346Z,1365.65
2022-08-17T21:49:46.501Z,1354.40
2022-08-17T21:52:21.036Z,1351.00
2022-08-17T21:55:02.514Z,1304.40
2022-08-17T21:57:32.279Z,1339.25
2022-08-17T22:00:01.905Z,1342.30
2022-08-17T22:02:35.505Z,1352.20
2022-08-17T22:05:29.990Z,1344.55
2022-08-17T22:08:06.427Z,1347.75
2022-08-17T22:10:40.111Z,1332.25
2022-08-17T22:13:20.126Z,1333.07
2022-08-17T22:16:15.553Z,1329.05
2022-08-17T22:18:57.618Z,1349.45
2022-08-17T22:21:25.181Z,1342.70
2022-08-17T22:24:07.030Z,1332.25
2022-08-17T22:27:05.060Z,1357.35
2022-08-17T22:29:46.147Z,1323.63
2022-08-17T22:32:37.921Z,1349.18
2022-08-17T22:35:43.380Z,1349.70
2022-08-17T22:38:36.611Z,1357.25
2022-08-17T22:41:34.352Z,1334.80
2022-08-17T22:44:14.277Z,1336.78
2022-08-17T22:46:52.025Z,1334.55
2022-08-17T22:49:31.377Z,1356.60
2022-08-17T22:52:23.731Z,1322.15
2022-08-17T22:55:34.581Z,1358.50
2022-08-17T22:58:28.192Z,1353.30
2022-08-17T23:00:55.770Z,1277.60
2022-08-17T23:03:25.066Z,1274.30
2022-08-17T23:46:05.122Z,1331.10
2022-08-17T23:53:48.432Z,1359.00
2022-08-17T23:56:17.350Z,1339.95
2022-08-17T23:58:44.817Z,1325.07
